sensor_id;sensor_type;location;lat;lon;timestamp;temperature;humidity
12049;DHT22;6085;49.452;8.502;2022-08-19T00:03:48;21.80;99.90
12049;DHT22;6085;49.452;8.502;2022-08-19T00:07:50;21.80;99.90
12049;DHT22;6085;49.452;8.502;2022-08-19T00:11:53;21.80;99.90
12049;DHT22;6085;49.452;8.502;2022-08-19T00:15:58;21.80;99.90
12049;DHT22;6085;49.452;8.502;2022-08-19T00:20:01;21.90;99.90
12049;DHT22;6085;49.452;8.502;2022-08-19T00:24:03;21.80;99.90
12049;DHT22;6085;49.452;8.502;2022-08-19T00:28:05;21.80;99.90
12049;DHT22;6085;49.452;8.502;2022-08-19T00:32:08;21.80;99.90
12049;DHT22;6085;49.452;8.502;2022-08-19T00:36:11;21.70;99.90
12049;DHT22;6085;49.452;8.502;2022-08-19T00:40:14;21.60;99.90
12049;DHT22;6085;49.452;8.502;2022-08-19T00:44:19;21.70;99.90
12049;DHT22;6085;49.452;8.502;2022-08-19T00:48:22;21.60;99.90
12049;DHT22;6085;49.452;8.502;2022-08-19T00:52:27;21.60;99.90
12049;DHT22;6085;49.452;8.502;2022-08-19T00:56:30;21.70;99.90
12049;DHT22;6085;49.452;8.502;2022-08-19T01:00:33;21.70;99.90
12049;DHT22;6085;49.452;8.502;2022-08-19T01:04:39;21.60;99.90
12049;DHT22;6085;49.452;8.502;2022-08-19T01:08:41;21.60;99.90
12049;DHT22;6085;49.452;8.502;2022-08-19T01:12:43;21.60;99.90
12049;DHT22;6085;49.452;8.502;2022-08-19T01:16:46;21.60;99.90
12049;DHT22;6085;49.452;8.502;2022-08-19T01:20:51;21.60;99.90
12049;DHT22;6085;49.452;8.502;2022-08-19T01:24:54;21.60;99.90
12049;DHT22;6085;49.452;8.502;2022-08-19T01:28:58;21.60;99.90
12049;DHT22;6085;49.452;8.502;2022-08-19T01:33:02;21.60;99.90
12049;DHT22;6085;49.452;8.502;2022-08-19T01:37:07;21.60;99.90
12049;DHT22;6085;49.452;8.502;2022-08-19T01:41:12;21.60;99.90
12049;DHT22;6085;49.452;8.502;2022-08-19T01:45:15;21.60;99.90
12049;DHT22;6085;49.452;8.502;2022-08-19T01:49:18;21.60;99.90
12049;DHT22;6085;49.452;8.502;2022-08-19T01:53:20;21.60;99.90
12049;DHT22;6085;49.452;8.502;2022-08-19T01:57:23;21.50;99.90
12049;DHT22;6085;49.452;8.502;2022-08-19T02:01:26;21.50;99.90
12049;DHT22;6085;49.452;8.502;2022-08-19T02:05:29;21.50;99.90
12049;DHT22;6085;49.452;8.502;2022-08-19T02:09:31;21.50;99.90
12049;DHT22;6085;49.452;8.502;2022-08-19T02:13:35;21.40;99.90
12049;DHT22;6085;49.452;8.502;2022-08-19T02:17:37;21.40;99.90
12049;DHT22;6085;49.452;8.502;2022-08-19T02:21:39;21.40;99.90
12049;DHT22;6085;49.452;8.502;2022-08-19T02:25:41;21.30;99.90
12049;DHT22;6085;49.452;8.502;2022-08-19T02:29:47;21.30;99.90
12049;DHT22;6085;49.452;8.502;2022-08-19T02:33:49;21.20;99.90
12049;DHT22;6085;49.452;8.502;2022-08-19T02:37:52;21.20;99.90
12049;DHT22;6085;49.452;8.502;2022-08-19T02:42:11;21.20;99.90
12049;DHT22;6085;49.452;8.502;2022-08-19T02:46:17;21.20;99.90
12049;DHT22;6085;49.452;8.502;2022-08-19T02:50:21;21.20;99.90
12049;DHT22;6085;49.452;8.502;2022-08-19T02:54:23;21.20;99.90
12049;DHT22;6085;49.452;8.502;2022-08-19T02:58:25;21.10;99.90
12049;DHT22;6085;49.452;8.502;2022-08-19T03:02:28;21.10;99.90
12049;DHT22;6085;49.452;8.502;2022-08-19T03:06:31;21.00;99.90
12049;DHT22;6085;49.452;8.502;2022-08-19T03:10:33;20.90;99.90
12049;DHT22;6085;49.452;8.502;2022-08-19T03:14:40;20.80;99.90
12049;DHT22;6085;49.452;8.502;2022-08-19T03:18:44;20.80;99.90
12049;DHT22;6085;49.452;8.502;2022-08-19T03:22:46;20.70;99.90
12049;DHT22;6085;49.452;8.502;2022-08-19T03:26:51;20.80;99.90
12049;DHT22;6085;49.452;8.502;2022-08-19T03:30:57;20.80;99.90
12049;DHT22;6085;49.452;8.502;2022-08-19T03:35:01;20.80;99.90
12049;DHT22;6085;49.452;8.502;2022-08-19T03:39:03;20.80;99.90
12049;DHT22;6085;49.452;8.502;2022-08-19T03:43:04;20.80;99.90
12049;DHT22;6085;49.452;8.502;2022-08-19T03:47:07;20.70;99.90
12049;DHT22;6085;49.452;8.502;2022-08-19T03:51:15;20.70;99.90
12049;DHT22;6085;49.452;8.502;2022-08-19T03:55:17;20.70;99.90
12049;DHT22;6085;49.452;8.502;2022-08-19T03:59:21;20.70;99.90
12049;DHT22;6085;49.452;8.502;2022-08-19T04:03:26;20.70;99.90
12049;DHT22;6085;49.452;8.502;2022-08-19T04:07:29;20.60;99.90
12049;DHT22;6085;49.452;8.502;2022-08-19T04:11:35;20.60;99.90
12049;DHT22;6085;49.452;8.502;2022-08-19T04:15:42;20.60;99.90
12049;DHT22;6085;49.452;8.502;2022-08-19T04:19:44;20.60;99.90
12049;DHT22;6085;49.452;8.502;2022-08-19T04:23:47;20.70;99.90
12049;DHT22;6085;49.452;8.502;2022-08-19T04:27:49;20.80;99.90
12049;DHT22;6085;49.452;8.502;2022-08-19T04:31:52;20.90;99.90
12049;DHT22;6085;49.452;8.502;2022-08-19T04:35:54;20.90;99.90
12049;DHT22;6085;49.452;8.502;2022-08-19T04:39:59;20.90;99.90
12049;DHT22;6085;49.452;8.502;2022-08-19T04:44:19;20.80;99.90
12049;DHT22;6085;49.452;8.502;2022-08-19T04:48:21;20.70;99.90
12049;DHT22;6085;49.452;8.502;2022-08-19T04:52:26;20.70;99.90
12049;DHT22;6085;49.452;8.502;2022-08-19T04:56:30;20.70;99.90
12049;DHT22;6085;49.452;8.502;2022-08-19T05:00:32;20.70;99.90
12049;DHT22;6085;49.452;8.502;2022-08-19T05:04:34;20.80;99.90
12049;DHT22;6085;49.452;8.502;2022-08-19T05:08:40;20.90;99.90
12049;DHT22;6085;49.452;8.502;2022-08-19T05:12:45;21.00;99.90
12049;DHT22;6085;49.452;8.502;2022-08-19T05:16:46;21.10;99.90
12049;DHT22;6085;49.452;8.502;2022-08-19T05:20:48;21.20;99.90
12049;DHT22;6085;49.452;8.502;2022-08-19T05:25:10;21.30;99.90
12049;DHT22;6085;49.452;8.502;2022-08-19T05:29:15;21.40;99.90
12049;DHT22;6085;49.452;8.502;2022-08-19T05:33:17;21.50;99.90
12049;DHT22;6085;49.452;8.502;2022-08-19T05:37:19;21.50;99.90
12049;DHT22;6085;49.452;8.502;2022-08-19T05:41:22;21.60;99.90
12049;DHT22;6085;49.452;8.502;2022-08-19T05:45:32;21.90;99.90
12049;DHT22;6085;49.452;8.502;2022-08-19T05:49:35;22.10;99.90
12049;DHT22;6085;49.452;8.502;2022-08-19T05:53:37;22.40;99.90
12049;DHT22;6085;49.452;8.502;2022-08-19T05:57:39;22.60;99.90
12049;DHT22;6085;49.452;8.502;2022-08-19T06:01:45;22.80;99.90
12049;DHT22;6085;49.452;8.502;2022-08-19T06:05:51;23.00;99.90
12049;DHT22;6085;49.452;8.502;2022-08-19T06:09:56;23.00;99.90
12049;DHT22;6085;49.452;8.502;2022-08-19T06:14:01;23.00;99.90
12049;DHT22;6085;49.452;8.502;2022-08-19T06:18:04;23.10;99.90
12049;DHT22;6085;49.452;8.502;2022-08-19T06:22:06;23.00;99.90
12049;DHT22;6085;49.452;8.502;2022-08-19T06:26:11;23.10;99.90
12049;DHT22;6085;49.452;8.502;2022-08-19T06:30:14;23.20;99.90
12049;DHT22;6085;49.452;8.502;2022-08-19T06:34:18;23.20;99.90
12049;DHT22;6085;49.452;8.502;2022-08-19T06:38:21;23.30;99.90
12049;DHT22;6085;49.452;8.502;2022-08-19T06:42:24;23.20;99.90
12049;DHT22;6085;49.452;8.502;2022-08-19T06:46:26;23.20;99.90
12049;DHT22;6085;49.452;8.502;2022-08-19T06:50:29;23.30;99.90
12049;DHT22;6085;49.452;8.502;2022-08-19T06:54:31;23.40;99.90
12049;DHT22;6085;49.452;8.502;2022-08-19T06:58:33;23.50;99.90
12049;DHT22;6085;49.452;8.502;2022-08-19T07:02:35;23.60;99.90
12049;DHT22;6085;49.452;8.502;2022-08-19T07:06:39;23.60;99.90
12049;DHT22;6085;49.452;8.502;2022-08-19T07:10:43;23.50;99.90
12049;DHT22;6085;49.452;8.502;2022-08-19T07:14:45;23.50;99.90
12049;DHT22;6085;49.452;8.502;2022-08-19T07:18:49;23.60;99.90
12049;DHT22;6085;49.452;8.502;2022-08-19T07:22:53;23.80;99.90
12049;DHT22;6085;49.452;8.502;2022-08-19T07:26:57;24.20;99.90
12049;DHT22;6085;49.452;8.502;2022-08-19T07:31:01;24.60;99.90
12049;DHT22;6085;49.452;8.502;2022-08-19T07:35:04;25.10;99.90
12049;DHT22;6085;49.452;8.502;2022-08-19T07:39:10;25.70;99.90
12049;DHT22;6085;49.452;8.502;2022-08-19T07:43:12;26.00;99.90
12049;DHT22;6085;49.452;8.502;2022-08-19T07:47:15;26.10;99.90
12049;DHT22;6085;49.452;8.502;2022-08-19T07:51:21;26.20;99.90
12049;DHT22;6085;49.452;8.502;2022-08-19T07:55:25;26.30;99.90
12049;DHT22;6085;49.452;8.502;2022-08-19T07:59:27;26.20;99.90
12049;DHT22;6085;49.452;8.502;2022-08-19T08:03:30;25.80;99.90
12049;DHT22;6085;49.452;8.502;2022-08-19T08:08:04;26.40;99.90
12049;DHT22;6085;49.452;8.502;2022-08-19T08:12:29;28.30;99.90
12049;DHT22;6085;49.452;8.502;2022-08-19T08:16:34;31.00;99.90
12049;DHT22;6085;49.452;8.502;2022-08-19T08:20:36;33.20;99.80
12049;DHT22;6085;49.452;8.502;2022-08-19T08:24:38;33.10;97.80
12049;DHT22;6085;49.452;8.502;2022-08-19T08:28:41;31.50;99.20
12049;DHT22;6085;49.452;8.502;2022-08-19T08:32:43;30.40;99.90
12049;DHT22;6085;49.452;8.502;2022-08-19T08:36:46;30.90;99.90
12049;DHT22;6085;49.452;8.502;2022-08-19T08:40:50;31.60;98.50
12049;DHT22;6085;49.452;8.502;2022-08-19T08:44:59;32.60;97.50
12049;DHT22;6085;49.452;8.502;2022-08-19T08:49:12;33.60;95.40
12049;DHT22;6085;49.452;8.502;2022-08-19T08:53:21;34.30;93.00
12049;DHT22;6085;49.452;8.502;2022-08-19T08:57:27;34.10;92.30
12049;DHT22;6085;49.452;8.502;2022-08-19T09:01:32;33.80;92.10
12049;DHT22;6085;49.452;8.502;2022-08-19T09:05:39;34.00;92.10
12049;DHT22;6085;49.452;8.502;2022-08-19T09:09:49;34.50;91.40
12049;DHT22;6085;49.452;8.502;2022-08-19T09:13:59;34.80;90.80
12049;DHT22;6085;49.452;8.502;2022-08-19T09:18:04;33.70;91.30
12049;DHT22;6085;49.452;8.502;2022-08-19T09:22:06;33.40;91.80
12049;DHT22;6085;49.452;8.502;2022-08-19T09:26:10;33.70;91.30
12049;DHT22;6085;49.452;8.502;2022-08-19T09:30:17;34.00;90.50
12049;DHT22;6085;49.452;8.502;2022-08-19T09:34:20;33.90;89.50
12049;DHT22;6085;49.452;8.502;2022-08-19T09:38:22;35.20;86.80
12049;DHT22;6085;49.452;8.502;2022-08-19T09:42:24;36.70;82.80
12049;DHT22;6085;49.452;8.502;2022-08-19T09:46:28;37.70;77.10
12049;DHT22;6085;49.452;8.502;2022-08-19T09:50:32;37.80;76.00
12049;DHT22;6085;49.452;8.502;2022-08-19T09:54:35;36.50;77.40
12049;DHT22;6085;49.452;8.502;2022-08-19T09:58:38;34.70;80.40
12049;DHT22;6085;49.452;8.502;2022-08-19T10:02:40;32.50;86.10
12049;DHT22;6085;49.452;8.502;2022-08-19T10:06:43;31.70;88.90
12049;DHT22;6085;49.452;8.502;2022-08-19T10:10:45;31.60;88.00
12049;DHT22;6085;49.452;8.502;2022-08-19T10:14:47;31.60;89.70
12049;DHT22;6085;49.452;8.502;2022-08-19T10:18:52;30.60;91.20
12049;DHT22;6085;49.452;8.502;2022-08-19T10:22:55;31.80;90.30
12049;DHT22;6085;49.452;8.502;2022-08-19T10:27:00;34.10;84.40
12049;DHT22;6085;49.452;8.502;2022-08-19T10:31:05;35.90;79.80
12049;DHT22;6085;49.452;8.502;2022-08-19T10:35:08;36.60;75.70
12049;DHT22;6085;49.452;8.502;2022-08-19T10:39:11;36.50;75.30
12049;DHT22;6085;49.452;8.502;2022-08-19T10:43:13;35.90;76.00
12049;DHT22;6085;49.452;8.502;2022-08-19T10:47:15;33.80;80.40
12049;DHT22;6085;49.452;8.502;2022-08-19T10:51:17;31.70;86.20
12049;DHT22;6085;49.452;8.502;2022-08-19T10:55:44;31.80;86.90
12049;DHT22;6085;49.452;8.502;2022-08-19T11:00:05;34.70;79.70
12049;DHT22;6085;49.452;8.502;2022-08-19T11:04:07;35.20;78.40
12049;DHT22;6085;49.452;8.502;2022-08-19T11:08:11;35.90;75.70
12049;DHT22;6085;49.452;8.502;2022-08-19T11:12:15;35.40;76.20
12049;DHT22;6085;49.452;8.502;2022-08-19T11:16:19;35.50;74.60
12049;DHT22;6085;49.452;8.502;2022-08-19T11:20:22;36.00;72.20
12049;DHT22;6085;49.452;8.502;2022-08-19T11:24:25;37.10;70.20
12049;DHT22;6085;49.452;8.502;2022-08-19T11:28:29;36.50;70.20
12049;DHT22;6085;49.452;8.502;2022-08-19T11:32:31;34.80;73.20
12049;DHT22;6085;49.452;8.502;2022-08-19T11:36:36;34.90;73.80
12049;DHT22;6085;49.452;8.502;2022-08-19T11:40:39;35.10;68.60
12049;DHT22;6085;49.452;8.502;2022-08-19T11:44:43;35.30;68.30
12049;DHT22;6085;49.452;8.502;2022-08-19T11:48:47;35.00;68.70
12049;DHT22;6085;49.452;8.502;2022-08-19T11:52:50;33.60;71.80
12049;DHT22;6085;49.452;8.502;2022-08-19T11:56:54;33.90;70.90
12049;DHT22;6085;49.452;8.502;2022-08-19T12:00:58;34.00;72.40
12049;DHT22;6085;49.452;8.502;2022-08-19T12:05:00;33.30;74.80
12049;DHT22;6085;49.452;8.502;2022-08-19T12:09:04;33.10;74.50
12049;DHT22;6085;49.452;8.502;2022-08-19T12:13:08;32.50;74.80
12049;DHT22;6085;49.452;8.502;2022-08-19T12:17:11;31.40;75.60
12049;DHT22;6085;49.452;8.502;2022-08-19T12:21:17;31.30;76.10
12049;DHT22;6085;49.452;8.502;2022-08-19T12:25:21;31.70;74.40
12049;DHT22;6085;49.452;8.502;2022-08-19T12:29:23;31.30;73.20
12049;DHT22;6085;49.452;8.502;2022-08-19T12:33:31;30.90;74.70
12049;DHT22;6085;49.452;8.502;2022-08-19T12:37:34;31.30;75.00
12049;DHT22;6085;49.452;8.502;2022-08-19T12:41:37;31.70;74.40
12049;DHT22;6085;49.452;8.502;2022-08-19T12:45:40;31.20;74.50
12049;DHT22;6085;49.452;8.502;2022-08-19T12:49:44;30.30;75.30
12049;DHT22;6085;49.452;8.502;2022-08-19T12:53:47;30.10;75.50
12049;DHT22;6085;49.452;8.502;2022-08-19T12:57:49;30.10;74.60
12049;DHT22;6085;49.452;8.502;2022-08-19T13:01:51;29.90;75.90
12049;DHT22;6085;49.452;8.502;2022-08-19T13:05:57;30.10;76.10
12049;DHT22;6085;49.452;8.502;2022-08-19T13:10:00;29.90;75.00
12049;DHT22;6085;49.452;8.502;2022-08-19T13:14:03;29.80;74.30
12049;DHT22;6085;49.452;8.502;2022-08-19T13:18:06;29.70;75.10
12049;DHT22;6085;49.452;8.502;2022-08-19T13:22:10;29.40;75.00
12049;DHT22;6085;49.452;8.502;2022-08-19T13:26:13;29.30;75.20
12049;DHT22;6085;49.452;8.502;2022-08-19T13:30:17;29.60;74.60
12049;DHT22;6085;49.452;8.502;2022-08-19T13:34:37;29.60;73.90
12049;DHT22;6085;49.452;8.502;2022-08-19T13:38:41;29.50;74.10
12049;DHT22;6085;49.452;8.502;2022-08-19T13:42:43;29.20;75.10
12049;DHT22;6085;49.452;8.502;2022-08-19T13:46:48;29.20;74.70
12049;DHT22;6085;49.452;8.502;2022-08-19T13:50:54;29.40;73.80
12049;DHT22;6085;49.452;8.502;2022-08-19T13:54:57;29.60;73.60
12049;DHT22;6085;49.452;8.502;2022-08-19T13:58:59;29.70;73.70
12049;DHT22;6085;49.452;8.502;2022-08-19T14:03:01;29.90;73.60
12049;DHT22;6085;49.452;8.502;2022-08-19T14:07:04;30.00;72.80
12049;DHT22;6085;49.452;8.502;2022-08-19T14:11:07;30.00;70.90
12049;DHT22;6085;49.452;8.502;2022-08-19T14:15:10;30.00;72.20
12049;DHT22;6085;49.452;8.502;2022-08-19T14:19:12;30.00;71.50
12049;DHT22;6085;49.452;8.502;2022-08-19T14:23:14;29.80;71.30
12049;DHT22;6085;49.452;8.502;2022-08-19T14:27:18;29.70;71.80
12049;DHT22;6085;49.452;8.502;2022-08-19T14:31:20;29.90;71.60
12049;DHT22;6085;49.452;8.502;2022-08-19T14:35:24;30.20;69.20
12049;DHT22;6085;49.452;8.502;2022-08-19T14:39:27;30.40;68.80
12049;DHT22;6085;49.452;8.502;2022-08-19T14:43:30;30.50;68.90
12049;DHT22;6085;49.452;8.502;2022-08-19T14:47:32;30.60;68.50
12049;DHT22;6085;49.452;8.502;2022-08-19T14:51:34;30.70;68.00
12049;DHT22;6085;49.452;8.502;2022-08-19T14:55:36;30.90;67.60
12049;DHT22;6085;49.452;8.502;2022-08-19T14:59:43;31.20;67.10
12049;DHT22;6085;49.452;8.502;2022-08-19T15:03:45;31.30;66.40
12049;DHT22;6085;49.452;8.502;2022-08-19T15:07:48;31.30;66.20
12049;DHT22;6085;49.452;8.502;2022-08-19T15:11:50;31.20;65.70
12049;DHT22;6085;49.452;8.502;2022-08-19T15:15:54;31.10;65.60
12049;DHT22;6085;49.452;8.502;2022-08-19T15:19:56;30.80;66.90
12049;DHT22;6085;49.452;8.502;2022-08-19T15:24:02;30.80;66.30
12049;DHT22;6085;49.452;8.502;2022-08-19T15:28:05;30.90;64.60
12049;DHT22;6085;49.452;8.502;2022-08-19T15:32:12;31.00;64.50
12049;DHT22;6085;49.452;8.502;2022-08-19T15:36:15;31.10;65.20
12049;DHT22;6085;49.452;8.502;2022-08-19T15:40:20;30.90;66.30
12049;DHT22;6085;49.452;8.502;2022-08-19T15:44:22;30.70;66.90
12049;DHT22;6085;49.452;8.502;2022-08-19T15:48:25;30.70;66.90
12049;DHT22;6085;49.452;8.502;2022-08-19T15:52:27;30.70;67.60
12049;DHT22;6085;49.452;8.502;2022-08-19T15:56:29;30.50;67.80
12049;DHT22;6085;49.452;8.502;2022-08-19T16:00:45;30.40;67.80
12049;DHT22;6085;49.452;8.502;2022-08-19T16:05:08;30.40;67.30
12049;DHT22;6085;49.452;8.502;2022-08-19T16:09:29;30.40;67.60
12049;DHT22;6085;49.452;8.502;2022-08-19T16:13:32;30.30;67.10
12049;DHT22;6085;49.452;8.502;2022-08-19T16:17:33;30.30;67.50
12049;DHT22;6085;49.452;8.502;2022-08-19T16:21:37;30.10;66.90
12049;DHT22;6085;49.452;8.502;2022-08-19T16:25:39;30.00;68.20
12049;DHT22;6085;49.452;8.502;2022-08-19T16:29:41;30.00;68.70
12049;DHT22;6085;49.452;8.502;2022-08-19T16:33:43;29.90;68.90
12049;DHT22;6085;49.452;8.502;2022-08-19T16:37:46;29.80;68.80
12049;DHT22;6085;49.452;8.502;2022-08-19T16:41:49;29.70;68.20
12049;DHT22;6085;49.452;8.502;2022-08-19T16:45:52;29.60;68.60
12049;DHT22;6085;49.452;8.502;2022-08-19T16:49:54;29.50;69.50
12049;DHT22;6085;49.452;8.502;2022-08-19T16:53:57;29.40;71.30
12049;DHT22;6085;49.452;8.502;2022-08-19T16:57:59;29.30;71.50
12049;DHT22;6085;49.452;8.502;2022-08-19T17:02:05;29.20;72.20
12049;DHT22;6085;49.452;8.502;2022-08-19T17:06:10;29.20;72.90
12049;DHT22;6085;49.452;8.502;2022-08-19T17:10:14;29.00;73.30
12049;DHT22;6085;49.452;8.502;2022-08-19T17:14:16;29.10;73.80
12049;DHT22;6085;49.452;8.502;2022-08-19T17:18:19;29.00;74.10
12049;DHT22;6085;49.452;8.502;2022-08-19T17:22:22;28.90;74.90
12049;DHT22;6085;49.452;8.502;2022-08-19T17:26:25;28.80;74.30
12049;DHT22;6085;49.452;8.502;2022-08-19T17:30:27;28.70;75.80
12049;DHT22;6085;49.452;8.502;2022-08-19T17:34:31;28.60;75.40
12049;DHT22;6085;49.452;8.502;2022-08-19T17:38:34;28.40;75.30
12049;DHT22;6085;49.452;8.502;2022-08-19T17:42:44;28.30;76.40
12049;DHT22;6085;49.452;8.502;2022-08-19T17:46:47;28.20;77.40
12049;DHT22;6085;49.452;8.502;2022-08-19T17:50:53;28.20;77.90
12049;DHT22;6085;49.452;8.502;2022-08-19T17:54:55;28.20;78.00
12049;DHT22;6085;49.452;8.502;2022-08-19T17:58:59;28.10;78.30
12049;DHT22;6085;49.452;8.502;2022-08-19T18:03:05;28.00;79.20
12049;DHT22;6085;49.452;8.502;2022-08-19T18:07:09;28.00;78.90
12049;DHT22;6085;49.452;8.502;2022-08-19T18:11:15;27.90;79.10
12049;DHT22;6085;49.452;8.502;2022-08-19T18:15:20;27.80;79.70
12049;DHT22;6085;49.452;8.502;2022-08-19T18:19:23;27.70;80.00
12049;DHT22;6085;49.452;8.502;2022-08-19T18:23:25;27.60;80.50
12049;DHT22;6085;49.452;8.502;2022-08-19T18:27:28;27.50;80.80
12049;DHT22;6085;49.452;8.502;2022-08-19T18:31:31;27.40;80.90
12049;DHT22;6085;49.452;8.502;2022-08-19T18:35:33;27.30;81.70
12049;DHT22;6085;49.452;8.502;2022-08-19T18:39:38;27.10;82.40
12049;DHT22;6085;49.452;8.502;2022-08-19T18:43:57;27.00;83.00
12049;DHT22;6085;49.452;8.502;2022-08-19T18:48:18;26.80;83.50
12049;DHT22;6085;49.452;8.502;2022-08-19T18:52:38;26.70;85.10
12049;DHT22;6085;49.452;8.502;2022-08-19T18:56:40;26.70;84.50
12049;DHT22;6085;49.452;8.502;2022-08-19T19:00:44;26.60;84.80
12049;DHT22;6085;49.452;8.502;2022-08-19T19:04:47;26.60;84.60
12049;DHT22;6085;49.452;8.502;2022-08-19T19:08:50;26.50;85.00
12049;DHT22;6085;49.452;8.502;2022-08-19T19:12:53;26.40;85.40
12049;DHT22;6085;49.452;8.502;2022-08-19T19:16:55;26.30;85.90
12049;DHT22;6085;49.452;8.502;2022-08-19T19:20:59;26.20;86.20
12049;DHT22;6085;49.452;8.502;2022-08-19T19:25:01;26.10;86.80
12049;DHT22;6085;49.452;8.502;2022-08-19T19:29:03;26.10;87.10
12049;DHT22;6085;49.452;8.502;2022-08-19T19:33:05;26.00;87.70
12049;DHT22;6085;49.452;8.502;2022-08-19T19:37:08;26.00;88.20
12049;DHT22;6085;49.452;8.502;2022-08-19T19:41:12;26.00;88.00
12049;DHT22;6085;49.452;8.502;2022-08-19T19:45:14;25.90;88.50
12049;DHT22;6085;49.452;8.502;2022-08-19T19:49:16;25.80;88.80
12049;DHT22;6085;49.452;8.502;2022-08-19T19:53:19;25.90;88.30
12049;DHT22;6085;49.452;8.502;2022-08-19T19:57:22;26.00;87.90
12049;DHT22;6085;49.452;8.502;2022-08-19T20:01:26;26.00;87.80
12049;DHT22;6085;49.452;8.502;2022-08-19T20:05:27;25.90;88.40
12049;DHT22;6085;49.452;8.502;2022-08-19T20:09:31;25.80;89.20
12049;DHT22;6085;49.452;8.502;2022-08-19T20:13:34;25.70;90.10
12049;DHT22;6085;49.452;8.502;2022-08-19T20:17:37;25.50;90.50
12049;DHT22;6085;49.452;8.502;2022-08-19T20:21:42;25.30;90.60
12049;DHT22;6085;49.452;8.502;2022-08-19T20:25:46;25.20;90.30
12049;DHT22;6085;49.452;8.502;2022-08-19T20:29:48;25.10;90.40
12049;DHT22;6085;49.452;8.502;2022-08-19T20:33:50;25.00;90.80
12049;DHT22;6085;49.452;8.502;2022-08-19T20:37:52;24.90;90.90
12049;DHT22;6085;49.452;8.502;2022-08-19T20:41:57;24.80;91.10
12049;DHT22;6085;49.452;8.502;2022-08-19T20:46:00;24.60;91.40
12049;DHT22;6085;49.452;8.502;2022-08-19T20:50:04;24.50;91.40
12049;DHT22;6085;49.452;8.502;2022-08-19T20:54:06;24.50;91.80
12049;DHT22;6085;49.452;8.502;2022-08-19T20:58:10;24.40;91.90
12049;DHT22;6085;49.452;8.502;2022-08-19T21:02:12;24.40;91.90
12049;DHT22;6085;49.452;8.502;2022-08-19T21:06:14;24.30;92.10
12049;DHT22;6085;49.452;8.502;2022-08-19T21:10:16;24.20;92.50
12049;DHT22;6085;49.452;8.502;2022-08-19T21:14:20;24.10;92.70
12049;DHT22;6085;49.452;8.502;2022-08-19T21:18:23;24.00;92.90
12049;DHT22;6085;49.452;8.502;2022-08-19T21:22:26;23.90;93.30
12049;DHT22;6085;49.452;8.502;2022-08-19T21:26:28;23.80;93.70
12049;DHT22;6085;49.452;8.502;2022-08-19T21:30:32;23.70;94.00
12049;DHT22;6085;49.452;8.502;2022-08-19T21:34:35;23.70;94.40
12049;DHT22;6085;49.452;8.502;2022-08-19T21:38:38;23.60;94.90
12049;DHT22;6085;49.452;8.502;2022-08-19T21:42:40;23.60;95.30
12049;DHT22;6085;49.452;8.502;2022-08-19T21:46:43;23.50;95.80
12049;DHT22;6085;49.452;8.502;2022-08-19T21:50:45;23.40;96.10
12049;DHT22;6085;49.452;8.502;2022-08-19T21:54:47;23.20;96.60
12049;DHT22;6085;49.452;8.502;2022-08-19T21:58:49;23.10;97.30
12049;DHT22;6085;49.452;8.502;2022-08-19T22:02:53;23.00;97.70
12049;DHT22;6085;49.452;8.502;2022-08-19T22:06:55;23.00;98.30
12049;DHT22;6085;49.452;8.502;2022-08-19T22:10:57;22.90;99.00
12049;DHT22;6085;49.452;8.502;2022-08-19T22:14:59;22.80;99.60
12049;DHT22;6085;49.452;8.502;2022-08-19T22:19:03;22.80;99.90
12049;DHT22;6085;49.452;8.502;2022-08-19T22:23:06;22.70;99.90
12049;DHT22;6085;49.452;8.502;2022-08-19T22:27:08;22.60;99.90
12049;DHT22;6085;49.452;8.502;2022-08-19T22:31:10;22.50;99.90
12049;DHT22;6085;49.452;8.502;2022-08-19T22:35:15;22.40;99.90
12049;DHT22;6085;49.452;8.502;2022-08-19T22:39:17;22.30;99.90
12049;DHT22;6085;49.452;8.502;2022-08-19T22:43:21;22.20;99.90
12049;DHT22;6085;49.452;8.502;2022-08-19T22:47:24;22.10;99.90
12049;DHT22;6085;49.452;8.502;2022-08-19T22:51:27;22.00;99.90
12049;DHT22;6085;49.452;8.502;2022-08-19T22:55:46;21.90;99.90
12049;DHT22;6085;49.452;8.502;2022-08-19T22:59:50;21.80;99.90
12049;DHT22;6085;49.452;8.502;2022-08-19T23:03:52;21.80;99.90
12049;DHT22;6085;49.452;8.502;2022-08-19T23:07:57;21.70;99.90
12049;DHT22;6085;49.452;8.502;2022-08-19T23:11:59;21.70;99.90
12049;DHT22;6085;49.452;8.502;2022-08-19T23:16:01;21.60;99.90
12049;DHT22;6085;49.452;8.502;2022-08-19T23:20:04;21.50;99.90
12049;DHT22;6085;49.452;8.502;2022-08-19T23:24:10;21.40;99.90
12049;DHT22;6085;49.452;8.502;2022-08-19T23:28:12;21.30;99.90
12049;DHT22;6085;49.452;8.502;2022-08-19T23:32:33;21.20;99.90
12049;DHT22;6085;49.452;8.502;2022-08-19T23:36:35;21.20;99.90
12049;DHT22;6085;49.452;8.502;2022-08-19T23:40:39;21.10;99.90
12049;DHT22;6085;49.452;8.502;2022-08-19T23:44:41;21.10;99.90
12049;DHT22;6085;49.452;8.502;2022-08-19T23:48:44;21.00;99.90
12049;DHT22;6085;49.452;8.502;2022-08-19T23:52:48;20.90;99.90
12049;DHT22;6085;49.452;8.502;2022-08-19T23:56:51;20.90;99.90
